sensor_id;sensor_type;location;lat;lon;timestamp;pressure;altitude;pressure_sealevel;temperature;humidity
69911;BME280;63555;49.920;17.868;2023-02-28T00:01:55;99863.41;;;-2.48;72.95
69911;BME280;63555;49.920;17.868;2023-02-28T00:06:55;99858.22;;;-2.45;72.88
69911;BME280;63555;49.920;17.868;2023-02-28T00:11:58;99860.81;;;-2.48;72.88
69911;BME280;63555;49.920;17.868;2023-02-28T00:16:58;99863.41;;;-2.51;72.95
69911;BME280;63555;49.920;17.868;2023-02-28T00:21:59;99867.69;;;-2.47;73.47
69911;BME280;63555;49.920;17.868;2023-02-28T00:26:59;99878.81;;;-2.36;73.87
69911;BME280;63555;49.920;17.868;2023-02-28T00:31:59;99873.56;;;-2.20;73.19
69911;BME280;63555;49.920;17.868;2023-02-28T00:37:00;99864.00;;;-2.08;73.08
69911;BME280;63555;49.920;17.868;2023-02-28T00:42:00;99862.22;;;-1.98;72.72
69911;BME280;63555;49.920;17.868;2023-02-28T00:47:01;99863.91;;;-1.94;73.24
69911;BME280;63555;49.920;17.868;2023-02-28T00:52:01;99874.25;;;-1.94;73.07
69911;BME280;63555;49.920;17.868;2023-02-28T00:57:02;99860.44;;;-1.93;73.19
69911;BME280;63555;49.920;17.868;2023-02-28T01:02:02;99867.31;;;-1.90;72.77
69911;BME280;63555;49.920;17.868;2023-02-28T01:07:03;99860.41;;;-1.87;73.07
69911;BME280;63555;49.920;17.868;2023-02-28T01:12:03;99865.56;;;-1.87;72.97
69911;BME280;63555;49.920;17.868;2023-02-28T01:17:04;99853.50;;;-1.86;72.97
69911;BME280;63555;49.920;17.868;2023-02-28T01:22:05;99855.25;;;-1.90;72.50
69911;BME280;63555;49.920;17.868;2023-02-28T01:27:06;99853.53;;;-1.91;72.96
69911;BME280;63555;49.920;17.868;2023-02-28T01:32:06;99839.78;;;-1.93;72.86
69911;BME280;63555;49.920;17.868;2023-02-28T01:37:06;99847.50;;;-1.92;73.17
69911;BME280;63555;49.920;17.868;2023-02-28T01:42:09;99852.69;;;-1.93;73.00
69911;BME280;63555;49.920;17.868;2023-02-28T01:47:10;99847.53;;;-1.95;72.95
69911;BME280;63555;49.920;17.868;2023-02-28T01:52:11;99844.09;;;-1.95;73.17
69911;BME280;63555;49.920;17.868;2023-02-28T01:57:23;99844.94;;;-1.95;72.65
69911;BME280;63555;49.920;17.868;2023-02-28T02:02:24;99845.78;;;-1.91;73.02
69911;BME280;63555;49.920;17.868;2023-02-28T02:07:26;99846.63;;;-1.90;72.98
69911;BME280;63555;49.920;17.868;2023-02-28T02:12:50;99848.38;;;-1.93;72.46
69911;BME280;63555;49.920;17.868;2023-02-28T02:17:56;99848.50;;;-2.09;72.68
69911;BME280;63555;49.920;17.868;2023-02-28T02:44:43;99849.94;;;-3.58;73.45
69911;BME280;63555;49.920;17.868;2023-02-28T02:49:37;99858.56;;;-3.73;74.03
69911;BME280;63555;49.920;17.868;2023-02-28T02:54:41;99852.56;;;-3.79;73.98
69911;BME280;63555;49.920;17.868;2023-02-28T02:59:43;99868.88;;;-3.91;73.47
69911;BME280;63555;49.920;17.868;2023-02-28T03:04:58;99857.69;;;-4.08;73.86
69911;BME280;63555;49.920;17.868;2023-02-28T03:10:00;99867.13;;;-4.29;74.00
69911;BME280;63555;49.920;17.868;2023-02-28T03:35:43;99885.75;;;-4.94;75.14
69911;BME280;63555;49.920;17.868;2023-02-28T03:40:58;99890.88;;;-4.97;75.10
69911;BME280;63555;49.920;17.868;2023-02-28T03:46:06;99883.13;;;-5.09;75.29
69911;BME280;63555;49.920;17.868;2023-02-28T03:51:10;99881.28;;;-5.24;75.57
69911;BME280;63555;49.920;17.868;2023-02-28T03:56:17;99883.81;;;-5.33;75.43
69911;BME280;63555;49.920;17.868;2023-02-28T04:01:23;99887.19;;;-5.41;75.52
69911;BME280;63555;49.920;17.868;2023-02-28T04:06:25;99888.84;;;-5.48;75.81
69911;BME280;63555;49.920;17.868;2023-02-28T04:11:36;99887.13;;;-5.49;75.97
69911;BME280;63555;49.920;17.868;2023-02-28T04:16:38;99884.53;;;-5.52;75.80
69911;BME280;63555;49.920;17.868;2023-02-28T04:21:48;99891.34;;;-5.60;76.49
69911;BME280;63555;49.920;17.868;2023-02-28T04:26:51;99895.56;;;-5.68;76.26
69911;BME280;63555;49.920;17.868;2023-02-28T04:31:52;99902.34;;;-5.77;76.43
69911;BME280;63555;49.920;17.868;2023-02-28T04:36:59;99902.31;;;-5.80;76.48
69911;BME280;63555;49.920;17.868;2023-02-28T04:42:00;99913.44;;;-5.81;76.80
69911;BME280;63555;49.920;17.868;2023-02-28T04:47:00;99910.84;;;-5.84;76.29
69911;BME280;63555;49.920;17.868;2023-02-28T04:52:01;99909.13;;;-5.83;76.85
69911;BME280;63555;49.920;17.868;2023-02-28T04:57:02;99905.72;;;-5.84;77.09
69911;BME280;63555;49.920;17.868;2023-02-28T05:02:02;99916.00;;;-5.81;76.92
69911;BME280;63555;49.920;17.868;2023-02-28T05:07:06;99907.47;;;-5.78;77.11
69911;BME280;63555;49.920;17.868;2023-02-28T05:12:08;99907.47;;;-5.77;77.16
69911;BME280;63555;49.920;17.868;2023-02-28T05:17:09;99905.78;;;-5.74;76.85
69911;BME280;63555;49.920;17.868;2023-02-28T05:22:14;99914.34;;;-5.74;76.61
69911;BME280;63555;49.920;17.868;2023-02-28T05:27:16;99922.88;;;-5.78;77.02
69911;BME280;63555;49.920;17.868;2023-02-28T05:32:17;99925.47;;;-5.75;77.05
69911;BME280;63555;49.920;17.868;2023-02-28T05:37:17;99933.19;;;-5.72;77.07
69911;BME280;63555;49.920;17.868;2023-02-28T05:42:18;99937.50;;;-5.71;76.83
69911;BME280;63555;49.920;17.868;2023-02-28T05:47:18;99939.25;;;-5.67;77.07
69911;BME280;63555;49.920;17.868;2023-02-28T05:52:19;99949.53;;;-5.64;77.15
69911;BME280;63555;49.920;17.868;2023-02-28T05:57:19;99954.69;;;-5.61;77.07
69911;BME280;63555;49.920;17.868;2023-02-28T06:02:19;99959.91;;;-5.55;77.55
69911;BME280;63555;49.920;17.868;2023-02-28T06:07:20;99960.00;;;-5.41;78.04
69911;BME280;63555;49.920;17.868;2023-02-28T06:12:22;99971.25;;;-5.27;77.75
69911;BME280;63555;49.920;17.868;2023-02-28T06:17:22;99976.47;;;-5.18;77.76
69911;BME280;63555;49.920;17.868;2023-02-28T06:22:23;99971.41;;;-5.08;77.98
69911;BME280;63555;49.920;17.868;2023-02-28T06:27:23;99986.91;;;-4.96;78.42
69911;BME280;63555;49.920;17.868;2023-02-28T06:32:24;99980.13;;;-4.82;78.37
69911;BME280;63555;49.920;17.868;2023-02-28T06:37:24;99977.66;;;-4.64;78.38
69911;BME280;63555;49.920;17.868;2023-02-28T06:42:27;99978.63;;;-4.40;78.41
69911;BME280;63555;49.920;17.868;2023-02-28T06:47:31;99990.72;;;-4.24;78.13
69911;BME280;63555;49.920;17.868;2023-02-28T06:52:31;99989.06;;;-4.07;78.28
69911;BME280;63555;49.920;17.868;2023-02-28T06:57:32;99993.38;;;-3.97;78.22
69911;BME280;63555;49.920;17.868;2023-02-28T07:02:34;99995.13;;;-3.82;78.52
69911;BME280;63555;49.920;17.868;2023-02-28T07:07:35;99994.28;;;-3.72;77.86
69911;BME280;63555;49.920;17.868;2023-02-28T07:12:38;99991.72;;;-3.58;78.43
69911;BME280;63555;49.920;17.868;2023-02-28T07:17:38;99997.78;;;-3.44;78.32
69911;BME280;63555;49.920;17.868;2023-02-28T07:22:38;99996.06;;;-3.25;78.25
69911;BME280;63555;49.920;17.868;2023-02-28T07:27:39;100009.81;;;-3.08;78.11
69911;BME280;63555;49.920;17.868;2023-02-28T07:32:39;100008.06;;;-2.84;78.24
69911;BME280;63555;49.920;17.868;2023-02-28T07:37:39;100015.78;;;-2.57;78.32
69911;BME280;63555;49.920;17.868;2023-02-28T07:42:41;100018.28;;;-2.33;78.12
69911;BME280;63555;49.920;17.868;2023-02-28T07:47:42;100024.22;;;-2.08;78.03
69911;BME280;63555;49.920;17.868;2023-02-28T07:52:43;100031.81;;;-1.80;77.49
69911;BME280;63555;49.920;17.868;2023-02-28T07:57:43;100023.97;;;-1.59;77.36
69911;BME280;63555;49.920;17.868;2023-02-28T08:02:44;100030.72;;;-1.38;77.26
69911;BME280;63555;49.920;17.868;2023-02-28T08:07:45;100017.59;;;-1.14;77.26
69911;BME280;63555;49.920;17.868;2023-02-28T08:12:45;100019.84;;;-0.73;77.27
69911;BME280;63555;49.920;17.868;2023-02-28T08:17:45;100017.47;;;-0.14;77.04
69911;BME280;63555;49.920;17.868;2023-02-28T08:22:46;100018.09;;;0.66;76.51
69911;BME280;63555;49.920;17.868;2023-02-28T08:27:46;100010.13;;;1.77;75.05
69911;BME280;63555;49.920;17.868;2023-02-28T08:32:46;100001.91;;;2.75;72.87
69911;BME280;63555;49.920;17.868;2023-02-28T08:37:48;100002.56;;;3.19;72.08
69911;BME280;63555;49.920;17.868;2023-02-28T08:42:49;99999.84;;;3.87;71.77
69911;BME280;63555;49.920;17.868;2023-02-28T08:47:49;100002.56;;;4.43;70.40
69911;BME280;63555;49.920;17.868;2023-02-28T08:52:52;100007.59;;;4.77;69.43
69911;BME280;63555;49.920;17.868;2023-02-28T08:57:52;100013.97;;;4.95;69.13
69911;BME280;63555;49.920;17.868;2023-02-28T09:02:53;100009.50;;;5.25;68.90
69911;BME280;63555;49.920;17.868;2023-02-28T09:07:54;100004.19;;;5.53;68.04
69911;BME280;63555;49.920;17.868;2023-02-28T09:12:55;100002.19;;;6.09;67.00
69911;BME280;63555;49.920;17.868;2023-02-28T09:17:55;100002.63;;;7.50;65.23
69911;BME280;63555;49.920;17.868;2023-02-28T09:22:55;100018.41;;;8.66;63.26
69911;BME280;63555;49.920;17.868;2023-02-28T09:27:56;100001.53;;;10.25;60.43
69911;BME280;63555;49.920;17.868;2023-02-28T09:32:56;100002.78;;;12.01;57.67
69911;BME280;63555;49.920;17.868;2023-02-28T09:37:56;100001.13;;;13.23;54.37
69911;BME280;63555;49.920;17.868;2023-02-28T09:42:59;99996.97;;;13.59;53.31
69911;BME280;63555;49.920;17.868;2023-02-28T09:48:03;99997.81;;;14.10;51.71
69911;BME280;63555;49.920;17.868;2023-02-28T10:03:55;99991.09;;;13.28;49.82
69911;BME280;63555;49.920;17.868;2023-02-28T10:09:24;99996.53;;;14.28;45.65
69911;BME280;63555;49.920;17.868;2023-02-28T10:14:28;99993.09;;;14.88;44.84
69911;BME280;63555;49.920;17.868;2023-02-28T10:24:53;99984.13;;;13.53;46.00
69911;BME280;63555;49.920;17.868;2023-02-28T10:29:59;99989.00;;;13.46;44.85
69911;BME280;63555;49.920;17.868;2023-02-28T10:40:39;99973.50;;;14.29;42.68
69911;BME280;63555;49.920;17.868;2023-02-28T10:45:53;99964.22;;;14.84;41.14
69911;BME280;63555;49.920;17.868;2023-02-28T10:50:54;99963.34;;;15.07;40.27
69911;BME280;63555;49.920;17.868;2023-02-28T11:01:19;99948.09;;;16.02;38.93
69911;BME280;63555;49.920;17.868;2023-02-28T11:06:27;99933.84;;;16.03;38.21
69911;BME280;63555;49.920;17.868;2023-02-28T11:11:31;99937.72;;;15.99;37.64
69911;BME280;63555;49.920;17.868;2023-02-28T11:16:41;99935.53;;;15.81;37.27
69911;BME280;63555;49.920;17.868;2023-02-28T11:21:57;99932.63;;;15.84;37.51
69911;BME280;63555;49.920;17.868;2023-02-28T11:26:59;99935.91;;;15.88;37.72
69911;BME280;63555;49.920;17.868;2023-02-28T11:32:11;99929.59;;;15.67;37.19
69911;BME280;63555;49.920;17.868;2023-02-28T11:37:18;99923.03;;;15.59;37.84
69911;BME280;63555;49.920;17.868;2023-02-28T11:58:43;99903.28;;;15.51;36.97
69911;BME280;63555;49.920;17.868;2023-02-28T12:04:24;99904.56;;;16.03;36.16
69911;BME280;63555;49.920;17.868;2023-02-28T12:25:22;99890.94;;;15.27;36.02
69911;BME280;63555;49.920;17.868;2023-02-28T12:30:41;99896.13;;;13.60;37.51
69911;BME280;63555;49.920;17.868;2023-02-28T12:35:48;99893.47;;;13.60;38.25
69911;BME280;63555;49.920;17.868;2023-02-28T12:41:02;99886.38;;;14.23;37.72
69911;BME280;63555;49.920;17.868;2023-02-28T12:46:11;99880.53;;;14.78;36.69
69911;BME280;63555;49.920;17.868;2023-02-28T12:51:12;99885.06;;;14.89;36.75
69911;BME280;63555;49.920;17.868;2023-02-28T13:07:40;99871.88;;;14.87;35.55
69911;BME280;63555;49.920;17.868;2023-02-28T13:12:53;99862.63;;;14.69;35.87
69911;BME280;63555;49.920;17.868;2023-02-28T13:17:56;99868.91;;;13.46;36.75
69911;BME280;63555;49.920;17.868;2023-02-28T13:22:58;99872.78;;;13.02;37.79
69911;BME280;63555;49.920;17.868;2023-02-28T13:27:59;99866.78;;;12.86;37.42
69911;BME280;63555;49.920;17.868;2023-02-28T13:38:36;99861.25;;;13.66;36.40
69911;BME280;63555;49.920;17.868;2023-02-28T13:44:00;99859.22;;;13.70;35.55
69911;BME280;63555;49.920;17.868;2023-02-28T14:05:15;99831.66;;;12.96;36.79
69911;BME280;63555;49.920;17.868;2023-02-28T14:10:28;99836.41;;;12.79;36.86
69911;BME280;63555;49.920;17.868;2023-02-28T14:20:40;99833.75;;;11.28;38.67
69911;BME280;63555;49.920;17.868;2023-02-28T14:31:16;99834.00;;;10.65;39.75
69911;BME280;63555;49.920;17.868;2023-02-28T14:36:48;99830.94;;;10.43;39.60
69911;BME280;63555;49.920;17.868;2023-02-28T14:41:50;99829.94;;;9.49;40.76
69911;BME280;63555;49.920;17.868;2023-02-28T14:46:53;99835.50;;;8.60;41.88
69911;BME280;63555;49.920;17.868;2023-02-28T14:57:27;99829.38;;;6.71;44.85
69911;BME280;63555;49.920;17.868;2023-02-28T15:02:34;99833.84;;;5.82;45.37
69911;BME280;63555;49.920;17.868;2023-02-28T15:07:35;99833.28;;;5.04;47.02
69911;BME280;63555;49.920;17.868;2023-02-28T15:12:37;99827.53;;;4.44;47.31
69911;BME280;63555;49.920;17.868;2023-02-28T15:17:39;99839.00;;;3.86;48.64
69911;BME280;63555;49.920;17.868;2023-02-28T15:22:40;99846.50;;;3.38;48.74
69911;BME280;63555;49.920;17.868;2023-02-28T15:27:49;99848.28;;;3.06;49.71
69911;BME280;63555;49.920;17.868;2023-02-28T15:38:22;99842.25;;;3.04;50.04
69911;BME280;63555;49.920;17.868;2023-02-28T15:43:29;99829.22;;;2.73;50.17
69911;BME280;63555;49.920;17.868;2023-02-28T15:53:37;99831.94;;;1.99;52.08
69911;BME280;63555;49.920;17.868;2023-02-28T15:58:38;99836.00;;;1.72;52.17
69911;BME280;63555;49.920;17.868;2023-02-28T16:03:43;99853.13;;;1.42;52.46
69911;BME280;63555;49.920;17.868;2023-02-28T16:08:45;99839.81;;;1.16;53.16
69911;BME280;63555;49.920;17.868;2023-02-28T16:13:45;99855.84;;;0.93;53.73
69911;BME280;63555;49.920;17.868;2023-02-28T16:18:46;99845.81;;;0.73;54.13
69911;BME280;63555;49.920;17.868;2023-02-28T16:23:46;99840.16;;;0.51;54.51
69911;BME280;63555;49.920;17.868;2023-02-28T16:28:47;99845.72;;;0.28;55.14
69911;BME280;63555;49.920;17.868;2023-02-28T16:33:47;99848.69;;;0.07;55.56
69911;BME280;63555;49.920;17.868;2023-02-28T16:38:48;99859.34;;;-0.14;56.22
69911;BME280;63555;49.920;17.868;2023-02-28T16:49:11;99870.31;;;-0.57;57.12
69911;BME280;63555;49.920;17.868;2023-02-28T16:54:12;99868.81;;;-0.76;57.63
69911;BME280;63555;49.920;17.868;2023-02-28T16:59:15;99862.03;;;-0.89;58.10
69911;BME280;63555;49.920;17.868;2023-02-28T17:04:18;99874.28;;;-1.02;58.64
69911;BME280;63555;49.920;17.868;2023-02-28T17:09:20;99878.75;;;-1.16;58.59
69911;BME280;63555;49.920;17.868;2023-02-28T17:14:21;99884.88;;;-1.26;59.57
69911;BME280;63555;49.920;17.868;2023-02-28T17:19:23;99880.66;;;-1.37;59.67
69911;BME280;63555;49.920;17.868;2023-02-28T17:24:23;99881.66;;;-1.48;59.80
69911;BME280;63555;49.920;17.868;2023-02-28T17:29:24;99891.19;;;-1.56;60.13
69911;BME280;63555;49.920;17.868;2023-02-28T17:34:24;99895.59;;;-1.68;60.50
69911;BME280;63555;49.920;17.868;2023-02-28T17:39:24;99887.91;;;-1.80;60.90
69911;BME280;63555;49.920;17.868;2023-02-28T17:44:25;99884.53;;;-1.89;61.12
69911;BME280;63555;49.920;17.868;2023-02-28T17:49:26;99879.44;;;-2.00;61.78
69911;BME280;63555;49.920;17.868;2023-02-28T17:54:26;99893.28;;;-2.09;61.95
69911;BME280;63555;49.920;17.868;2023-02-28T17:59:26;99887.31;;;-2.18;62.20
69911;BME280;63555;49.920;17.868;2023-02-28T18:04:33;99889.13;;;-2.30;62.70
69911;BME280;63555;49.920;17.868;2023-02-28T18:09:33;99890.88;;;-2.38;62.75
69911;BME280;63555;49.920;17.868;2023-02-28T18:14:33;99884.91;;;-2.46;63.45
69911;BME280;63555;49.920;17.868;2023-02-28T18:19:34;99901.28;;;-2.53;63.54
69911;BME280;63555;49.920;17.868;2023-02-28T18:24:34;99896.13;;;-2.61;63.65
69911;BME280;63555;49.920;17.868;2023-02-28T18:29:35;99896.16;;;-2.70;64.17
69911;BME280;63555;49.920;17.868;2023-02-28T18:34:37;99893.63;;;-2.76;64.70
69911;BME280;63555;49.920;17.868;2023-02-28T18:39:38;99901.34;;;-2.73;65.11
69911;BME280;63555;49.920;17.868;2023-02-28T18:44:38;99900.47;;;-2.66;65.21
69911;BME280;63555;49.920;17.868;2023-02-28T18:49:38;99898.72;;;-2.65;64.61
69911;BME280;63555;49.920;17.868;2023-02-28T18:54:39;99893.63;;;-2.77;64.97
69911;BME280;63555;49.920;17.868;2023-02-28T18:59:39;99893.69;;;-2.93;65.17
69911;BME280;63555;49.920;17.868;2023-02-28T19:04:40;99900.59;;;-3.07;65.35
69911;BME280;63555;49.920;17.868;2023-02-28T19:09:41;99894.63;;;-3.26;65.47
69911;BME280;63555;49.920;17.868;2023-02-28T19:14:41;99893.78;;;-3.38;66.28
69911;BME280;63555;49.920;17.868;2023-02-28T19:19:41;99898.09;;;-3.45;66.32
69911;BME280;63555;49.920;17.868;2023-02-28T19:24:42;99891.19;;;-3.47;66.88
69911;BME280;63555;49.920;17.868;2023-02-28T19:29:47;99895.50;;;-3.37;66.83
69911;BME280;63555;49.920;17.868;2023-02-28T19:34:48;99910.13;;;-3.42;66.36
69911;BME280;63555;49.920;17.868;2023-02-28T19:39:48;99897.22;;;-3.58;66.79
69911;BME280;63555;49.920;17.868;2023-02-28T19:44:48;99902.38;;;-3.71;66.98
69911;BME280;63555;49.920;17.868;2023-02-28T19:49:49;99898.06;;;-3.83;67.33
69911;BME280;63555;49.920;17.868;2023-02-28T19:54:53;99905.78;;;-3.94;67.72
69911;BME280;63555;49.920;17.868;2023-02-28T19:59:54;99886.91;;;-4.00;67.67
69911;BME280;63555;49.920;17.868;2023-02-28T20:04:54;99895.47;;;-4.06;67.93
69911;BME280;63555;49.920;17.868;2023-02-28T20:09:56;99894.59;;;-4.14;68.46
69911;BME280;63555;49.920;17.868;2023-02-28T20:14:57;99892.03;;;-4.12;68.74
69911;BME280;63555;49.920;17.868;2023-02-28T20:19:58;99896.34;;;-4.05;68.39
69911;BME280;63555;49.920;17.868;2023-02-28T20:24:59;99882.59;;;-4.03;68.89
69911;BME280;63555;49.920;17.868;2023-02-28T20:30:00;99887.75;;;-4.01;68.84
69911;BME280;63555;49.920;17.868;2023-02-28T20:35:00;99895.47;;;-4.12;68.70
69911;BME280;63555;49.920;17.868;2023-02-28T20:40:01;99896.31;;;-4.27;68.59
69911;BME280;63555;49.920;17.868;2023-02-28T20:45:03;99889.38;;;-4.41;69.14
69911;BME280;63555;49.920;17.868;2023-02-28T20:50:04;99891.91;;;-4.54;69.32
69911;BME280;63555;49.920;17.868;2023-02-28T20:55:05;99889.31;;;-4.63;69.61
69911;BME280;63555;49.920;17.868;2023-02-28T21:00:06;99899.59;;;-4.67;69.62
69911;BME280;63555;49.920;17.868;2023-02-28T21:05:08;99894.41;;;-4.76;70.32
69911;BME280;63555;49.920;17.868;2023-02-28T21:10:09;99900.41;;;-4.81;70.31
69911;BME280;63555;49.920;17.868;2023-02-28T21:15:10;99908.94;;;-4.88;70.38
69911;BME280;63555;49.920;17.868;2023-02-28T21:20:11;99901.22;;;-4.91;70.63
69911;BME280;63555;49.920;17.868;2023-02-28T21:25:11;99900.34;;;-4.91;70.72
69911;BME280;63555;49.920;17.868;2023-02-28T21:30:11;99908.03;;;-4.99;70.90
69911;BME280;63555;49.920;17.868;2023-02-28T21:35:12;99902.00;;;-5.04;71.02
69911;BME280;63555;49.920;17.868;2023-02-28T21:40:13;99908.84;;;-5.07;71.15
69911;BME280;63555;49.920;17.868;2023-02-28T21:45:13;99910.53;;;-5.09;71.29
69911;BME280;63555;49.920;17.868;2023-02-28T21:50:13;99909.69;;;-5.08;71.19
69911;BME280;63555;49.920;17.868;2023-02-28T21:55:14;99910.53;;;-5.11;71.26
69911;BME280;63555;49.920;17.868;2023-02-28T22:00:14;99906.22;;;-5.17;71.45
69911;BME280;63555;49.920;17.868;2023-02-28T22:05:16;99911.34;;;-5.17;71.46
69911;BME280;63555;49.920;17.868;2023-02-28T22:10:16;99918.19;;;-5.19;71.76
69911;BME280;63555;49.920;17.868;2023-02-28T22:15:16;99917.28;;;-5.22;71.80
69911;BME280;63555;49.920;17.868;2023-02-28T22:20:17;99915.50;;;-5.32;71.88
69911;BME280;63555;49.920;17.868;2023-02-28T22:25:18;99918.03;;;-5.40;72.69
69911;BME280;63555;49.920;17.868;2023-02-28T22:30:18;99914.56;;;-5.45;72.15
69911;BME280;63555;49.920;17.868;2023-02-28T22:35:18;99920.53;;;-5.51;71.81
69911;BME280;63555;49.920;17.868;2023-02-28T22:40:19;99920.44;;;-5.63;72.22
69911;BME280;63555;49.920;17.868;2023-02-28T22:45:20;99924.69;;;-5.68;72.99
69911;BME280;63555;49.920;17.868;2023-02-28T22:50:20;99919.56;;;-5.65;73.00
69911;BME280;63555;49.920;17.868;2023-02-28T22:55:20;99916.09;;;-5.68;72.87
69911;BME280;63555;49.920;17.868;2023-02-28T23:00:21;99908.44;;;-5.64;73.12
69911;BME280;63555;49.920;17.868;2023-02-28T23:05:21;99911.91;;;-5.57;72.74
69911;BME280;63555;49.920;17.868;2023-02-28T23:10:21;99923.88;;;-5.59;73.17
69911;BME280;63555;49.920;17.868;2023-02-28T23:15:22;99915.25;;;-5.69;73.16
69911;BME280;63555;49.920;17.868;2023-02-28T23:20:22;99913.44;;;-5.79;73.75
69911;BME280;63555;49.920;17.868;2023-02-28T23:25:23;99907.41;;;-5.84;73.68
69911;BME280;63555;49.920;17.868;2023-02-28T23:30:23;99912.50;;;-5.89;73.80
69911;BME280;63555;49.920;17.868;2023-02-28T23:35:24;99921.91;;;-5.95;73.67
69911;BME280;63555;49.920;17.868;2023-02-28T23:40:24;99927.88;;;-5.96;73.63
69911;BME280;63555;49.920;17.868;2023-02-28T23:45:24;99922.69;;;-6.04;73.89
69911;BME280;63555;49.920;17.868;2023-02-28T23:50:26;99926.09;;;-6.06;74.11
69911;BME280;63555;49.920;17.868;2023-02-28T23:55:26;99931.94;;;-6.15;73.68
